createdAt,value
2018-08-23T00:00:05.616Z,5.30
2018-08-23T00:06:10.233Z,5.23
2018-08-23T00:12:14.789Z,9.63
2018-08-23T00:18:19.387Z,7.63
2018-08-23T00:24:24.724Z,5.63
2018-08-23T00:30:30.209Z,11.20
2018-08-23T00:36:36.380Z,8.40
2018-08-23T00:42:40.985Z,8.20
2018-08-23T00:48:45.612Z,9.60
2018-08-23T00:54:50.329Z,11.93
2018-08-23T01:00:59.900Z,8.20
2018-08-23T01:07:04.551Z,10.27
2018-08-23T01:13:09.139Z,10.70
2018-08-23T01:19:18.944Z,11.10
2018-08-23T01:25:23.590Z,9.40
2018-08-23T01:31:30.117Z,11.20
2018-08-23T01:37:42.185Z,12.93
2018-08-23T01:43:46.772Z,7.97
2018-08-23T01:49:51.351Z,7.63
2018-08-23T01:55:55.922Z,9.30
2018-08-23T02:02:04.981Z,9.33
2018-08-23T02:08:09.574Z,10.53
2018-08-23T02:14:14.169Z,8.87
2018-08-23T02:20:18.789Z,13.80
2018-08-23T02:26:23.417Z,14.93
2018-08-23T02:32:28.011Z,11.00
2018-08-23T02:38:32.781Z,9.80
2018-08-23T02:44:37.423Z,12.40
2018-08-23T02:50:41.986Z,15.50
2018-08-23T02:56:51.713Z,12.57
2018-08-23T03:02:56.430Z,12.77
2018-08-23T03:09:01.023Z,12.10
2018-08-23T03:15:07.263Z,9.80
2018-08-23T03:21:11.860Z,13.73
2018-08-23T03:27:16.437Z,12.17
2018-08-23T03:33:21.030Z,14.33
2018-08-23T03:39:25.685Z,14.30
2018-08-23T03:45:30.306Z,11.73
2018-08-23T03:51:38.677Z,12.70
2018-08-23T03:57:48.426Z,14.03
2018-08-23T04:03:53.708Z,10.50
2018-08-23T04:09:58.316Z,17.07
2018-08-23T04:16:03.635Z,13.20
2018-08-23T04:22:08.257Z,17.10
2018-08-23T04:28:13.292Z,17.53
2018-08-23T04:34:17.879Z,12.63
2018-08-23T04:40:22.514Z,13.40
2018-08-23T04:46:27.095Z,14.00
2018-08-23T04:52:31.719Z,12.97
2018-08-23T04:58:36.301Z,10.10
2018-08-23T05:04:40.886Z,17.93
2018-08-23T05:10:45.490Z,12.20
2018-08-23T05:16:50.064Z,14.17
2018-08-23T05:22:59.852Z,11.30
2018-08-23T05:29:05.455Z,13.67
2018-08-23T05:35:10.046Z,12.20
2018-08-23T05:41:14.630Z,20.73
2018-08-23T05:47:19.265Z,11.80
2018-08-23T05:53:23.874Z,13.63
2018-08-23T05:59:28.497Z,14.13
2018-08-23T06:05:33.106Z,15.13
2018-08-23T06:11:37.729Z,14.10
2018-08-23T06:17:42.273Z,16.67
2018-08-23T06:23:54.073Z,13.10
2018-08-23T06:29:58.657Z,26.30
2018-08-23T06:36:03.818Z,15.90
2018-08-23T06:42:08.456Z,14.83
2018-08-23T06:48:13.081Z,13.00
2018-08-23T06:54:17.709Z,13.27
2018-08-23T07:00:26.636Z,17.67
2018-08-23T07:06:31.463Z,16.97
2018-08-23T07:12:36.045Z,13.63
2018-08-23T07:18:40.641Z,15.07
2018-08-23T07:24:46.457Z,21.40
2018-08-23T07:30:51.128Z,26.60
2018-08-23T07:36:55.817Z,24.53
2018-08-23T07:43:00.448Z,38.73
2018-08-23T07:49:05.096Z,23.20
2018-08-23T07:55:09.720Z,20.57
2018-08-23T08:01:14.299Z,24.37
2018-08-23T08:07:21.711Z,26.07
2018-08-23T08:13:26.296Z,26.27
2018-08-23T08:19:38.149Z,37.47
2018-08-23T08:25:42.986Z,25.67
2018-08-23T08:31:47.706Z,23.10
2018-08-23T08:37:52.440Z,22.03
2018-08-23T08:43:57.075Z,19.70
2018-08-23T08:50:02.434Z,24.37
2018-08-23T08:56:08.059Z,18.70
2018-08-23T09:02:13.130Z,15.77
2018-08-23T09:08:18.263Z,17.93
2018-08-23T09:14:23.415Z,16.67
2018-08-23T09:20:28.753Z,22.83
2018-08-23T09:26:38.939Z,28.40
2018-08-23T09:32:43.941Z,26.17
2018-08-23T09:38:48.977Z,17.20
2018-08-23T09:45:11.045Z,19.20
2018-08-23T09:51:21.368Z,26.60
2018-08-23T09:57:26.877Z,22.00
2018-08-23T10:03:37.435Z,22.10
2018-08-23T10:09:47.330Z,23.60
2018-08-23T10:15:57.221Z,23.07
2018-08-23T10:22:07.211Z,18.97
2018-08-23T10:28:13.466Z,16.40
2018-08-23T10:34:18.537Z,17.60
2018-08-23T10:40:23.548Z,13.13
2018-08-23T10:46:28.469Z,12.50
2018-08-23T10:52:33.439Z,11.87
2018-08-23T10:58:38.437Z,14.13
2018-08-23T11:04:43.473Z,11.40
2018-08-23T11:10:53.469Z,10.37
2018-08-23T11:17:03.596Z,18.47
2018-08-23T11:23:08.708Z,10.50
2018-08-23T11:29:13.681Z,12.10
2018-08-23T11:35:18.694Z,9.63
2018-08-23T11:41:23.470Z,12.90
2018-08-23T11:47:28.185Z,8.23
2018-08-23T11:53:33.246Z,15.07
2018-08-23T11:59:38.069Z,6.87
2018-08-23T12:05:43.429Z,10.10
2018-08-23T12:11:48.440Z,7.50
2018-08-23T12:17:54.329Z,13.97
2018-08-23T12:23:59.256Z,10.07
2018-08-23T12:30:06.434Z,7.50
2018-08-23T12:36:11.218Z,7.80
2018-08-23T12:42:21.243Z,8.73
2018-08-23T12:48:26.317Z,9.07
2018-08-23T12:54:31.299Z,9.33
2018-08-23T13:00:36.933Z,10.83
2018-08-23T13:06:41.853Z,8.33
2018-08-23T13:12:46.882Z,9.63
2018-08-23T13:18:51.867Z,9.43
2018-08-23T13:25:01.901Z,13.83
2018-08-23T13:31:06.707Z,10.53
2018-08-23T13:37:11.428Z,14.83
2018-08-23T13:43:16.184Z,10.27
2018-08-23T13:49:20.901Z,8.80
2018-08-23T13:55:25.916Z,9.83
2018-08-23T14:01:30.775Z,11.23
2018-08-23T14:07:35.414Z,8.17
2018-08-23T14:13:41.573Z,12.93
2018-08-23T14:19:47.262Z,14.27
2018-08-23T14:25:53.300Z,8.37
2018-08-23T14:31:58.835Z,9.23
2018-08-23T14:38:03.638Z,10.57
2018-08-23T14:44:08.813Z,9.63
2018-08-23T14:50:13.424Z,9.70
2018-08-23T14:56:23.538Z,9.77
2018-08-23T15:02:28.592Z,9.23
2018-08-23T15:08:33.600Z,8.30
2018-08-23T15:14:38.712Z,10.23
2018-08-23T15:20:43.628Z,8.00
2018-08-23T15:26:48.766Z,11.30
2018-08-23T15:32:53.316Z,17.27
2018-08-23T15:38:57.966Z,18.87
2018-08-23T15:45:02.603Z,14.67
2018-08-23T15:51:07.300Z,12.97
2018-08-23T15:57:12.167Z,16.20
2018-08-23T16:03:17.163Z,12.37
2018-08-23T16:09:22.206Z,13.40
2018-08-23T16:15:27.560Z,12.83
2018-08-23T16:21:36.083Z,12.83
2018-08-23T16:27:41.150Z,21.30
2018-08-23T16:33:46.127Z,17.10
2018-08-23T16:39:51.169Z,11.10
2018-08-23T16:45:56.175Z,10.67
2018-08-23T16:52:01.168Z,10.60
2018-08-23T16:58:06.164Z,10.20
2018-08-23T17:04:11.218Z,11.97
2018-08-23T17:10:16.271Z,12.40
2018-08-23T17:16:26.876Z,10.33
2018-08-23T17:22:31.864Z,13.90
2018-08-23T17:28:36.995Z,12.90
2018-08-23T17:34:42.055Z,9.50
2018-08-23T17:40:47.465Z,10.83
2018-08-23T17:46:52.499Z,9.87
2018-08-23T17:52:57.483Z,9.77
2018-08-23T17:59:02.354Z,9.83
2018-08-23T18:05:07.378Z,9.63
2018-08-23T18:11:12.329Z,9.70
2018-08-23T18:17:17.296Z,15.33
2018-08-23T18:23:22.085Z,9.83
2018-08-23T18:29:26.767Z,11.20
2018-08-23T18:35:31.460Z,11.93
2018-08-23T18:41:36.434Z,40.20
2018-08-23T18:47:41.550Z,15.53
2018-08-23T18:53:46.515Z,10.23
2018-08-23T18:59:51.532Z,9.00
2018-08-23T19:05:56.435Z,9.07
2018-08-23T19:12:01.095Z,8.47
2018-08-23T19:18:06.095Z,10.47
2018-08-23T19:24:10.675Z,10.23
2018-08-23T19:30:15.288Z,8.93
2018-08-23T19:36:19.900Z,14.50
2018-08-23T19:42:24.561Z,11.10
2018-08-23T19:48:29.186Z,9.30
2018-08-23T19:54:33.800Z,10.57
2018-08-23T20:00:38.389Z,7.60
2018-08-23T20:06:42.985Z,10.53
2018-08-23T20:12:47.562Z,9.43
2018-08-23T20:18:52.201Z,10.40
2018-08-23T20:24:56.875Z,10.80
2018-08-23T20:31:01.438Z,11.83
2018-08-23T20:37:06.165Z,7.50
2018-08-23T20:43:10.750Z,7.53
2018-08-23T20:49:15.345Z,7.37
2018-08-23T20:55:19.926Z,9.40
2018-08-23T21:01:24.502Z,7.30
2018-08-23T21:07:29.082Z,8.00
2018-08-23T21:13:33.642Z,8.60
2018-08-23T21:19:38.279Z,9.20
2018-08-23T21:25:42.864Z,7.23
2018-08-23T21:31:47.460Z,12.93
2018-08-23T21:37:52.062Z,12.90
2018-08-23T21:43:56.676Z,7.90
2018-08-23T21:50:01.253Z,7.90
2018-08-23T21:56:05.839Z,12.10
2018-08-23T22:02:15.694Z,12.43
2018-08-23T22:08:20.307Z,11.23
2018-08-23T22:14:24.889Z,8.47
2018-08-23T22:20:29.513Z,12.20
2018-08-23T22:26:34.126Z,8.53
2018-08-23T22:32:38.768Z,8.20
2018-08-23T22:38:43.400Z,6.90
2018-08-23T22:44:48.006Z,7.70
2018-08-23T22:50:52.601Z,14.13
2018-08-23T22:56:57.253Z,8.43
2018-08-23T23:03:01.849Z,14.67
2018-08-23T23:09:11.144Z,8.60
2018-08-23T23:15:21.140Z,12.53
2018-08-23T23:21:25.704Z,9.83
2018-08-23T23:27:30.824Z,6.97
2018-08-23T23:33:35.430Z,14.33
2018-08-23T23:39:40.022Z,9.50
2018-08-23T23:45:44.560Z,16.53
2018-08-23T23:51:49.123Z,12.93
2018-08-23T23:57:53.684Z,9.90
